sensor_id;sensor_type;location;lat;lon;timestamp;temperature;humidity
23237;DHT22;11787;52.018;8.570;2024-02-14T00:01:04;7.00;99.90
23237;DHT22;11787;52.018;8.570;2024-02-14T00:03:29;7.00;99.90
23237;DHT22;11787;52.018;8.570;2024-02-14T00:05:55;7.00;99.90
23237;DHT22;11787;52.018;8.570;2024-02-14T00:08:22;7.00;99.90
23237;DHT22;11787;52.018;8.570;2024-02-14T00:10:48;7.00;99.90
23237;DHT22;11787;52.018;8.570;2024-02-14T00:13:14;7.00;99.90
23237;DHT22;11787;52.018;8.570;2024-02-14T00:15:40;7.10;99.90
23237;DHT22;11787;52.018;8.570;2024-02-14T00:18:06;7.10;99.90
23237;DHT22;11787;52.018;8.570;2024-02-14T00:20:31;7.10;99.90
23237;DHT22;11787;52.018;8.570;2024-02-14T00:22:58;7.10;99.90
23237;DHT22;11787;52.018;8.570;2024-02-14T00:25:23;7.20;99.90
23237;DHT22;11787;52.018;8.570;2024-02-14T00:27:49;7.20;99.90
23237;DHT22;11787;52.018;8.570;2024-02-14T00:30:15;7.30;99.90
23237;DHT22;11787;52.018;8.570;2024-02-14T00:32:40;7.30;99.90
23237;DHT22;11787;52.018;8.570;2024-02-14T00:35:06;7.30;99.90
23237;DHT22;11787;52.018;8.570;2024-02-14T00:37:32;7.30;99.90
23237;DHT22;11787;52.018;8.570;2024-02-14T00:39:59;7.30;99.90
23237;DHT22;11787;52.018;8.570;2024-02-14T00:42:25;7.40;99.90
23237;DHT22;11787;52.018;8.570;2024-02-14T00:44:51;7.40;99.90
23237;DHT22;11787;52.018;8.570;2024-02-14T00:47:17;7.40;99.90
23237;DHT22;11787;52.018;8.570;2024-02-14T00:49:42;7.40;99.90
23237;DHT22;11787;52.018;8.570;2024-02-14T00:52:08;7.50;99.90
23237;DHT22;11787;52.018;8.570;2024-02-14T00:54:34;7.50;99.90
23237;DHT22;11787;52.018;8.570;2024-02-14T00:57:00;7.50;99.90
23237;DHT22;11787;52.018;8.570;2024-02-14T00:59:26;7.50;99.90
23237;DHT22;11787;52.018;8.570;2024-02-14T01:01:51;7.50;99.90
23237;DHT22;11787;52.018;8.570;2024-02-14T01:04:17;7.50;99.90
23237;DHT22;11787;52.018;8.570;2024-02-14T01:06:43;7.60;99.90
23237;DHT22;11787;52.018;8.570;2024-02-14T01:09:08;7.60;99.90
23237;DHT22;11787;52.018;8.570;2024-02-14T01:11:34;7.60;99.90
23237;DHT22;11787;52.018;8.570;2024-02-14T01:14:00;7.60;99.90
23237;DHT22;11787;52.018;8.570;2024-02-14T01:16:26;7.60;99.90
23237;DHT22;11787;52.018;8.570;2024-02-14T01:18:52;7.60;99.90
23237;DHT22;11787;52.018;8.570;2024-02-14T01:21:18;7.60;99.90
23237;DHT22;11787;52.018;8.570;2024-02-14T01:23:43;7.60;99.90
23237;DHT22;11787;52.018;8.570;2024-02-14T01:26:09;7.70;99.90
23237;DHT22;11787;52.018;8.570;2024-02-14T01:28:34;7.70;99.90
23237;DHT22;11787;52.018;8.570;2024-02-14T01:31:00;7.70;99.90
23237;DHT22;11787;52.018;8.570;2024-02-14T01:33:25;7.60;99.90
23237;DHT22;11787;52.018;8.570;2024-02-14T01:35:51;7.60;99.90
23237;DHT22;11787;52.018;8.570;2024-02-14T01:38:16;7.60;99.90
23237;DHT22;11787;52.018;8.570;2024-02-14T01:40:42;7.60;99.90
23237;DHT22;11787;52.018;8.570;2024-02-14T01:43:10;7.50;99.90
23237;DHT22;11787;52.018;8.570;2024-02-14T01:45:36;7.50;99.90
23237;DHT22;11787;52.018;8.570;2024-02-14T01:48:02;7.50;99.90
23237;DHT22;11787;52.018;8.570;2024-02-14T01:50:28;7.50;99.90
23237;DHT22;11787;52.018;8.570;2024-02-14T01:52:56;7.40;99.90
23237;DHT22;11787;52.018;8.570;2024-02-14T01:55:25;7.40;99.90
23237;DHT22;11787;52.018;8.570;2024-02-14T01:57:52;7.50;99.90
23237;DHT22;11787;52.018;8.570;2024-02-14T02:00:18;7.50;99.90
23237;DHT22;11787;52.018;8.570;2024-02-14T02:02:44;7.40;99.90
23237;DHT22;11787;52.018;8.570;2024-02-14T02:05:12;7.40;99.90
23237;DHT22;11787;52.018;8.570;2024-02-14T02:07:39;7.40;99.90
23237;DHT22;11787;52.018;8.570;2024-02-14T02:10:11;7.40;99.90
23237;DHT22;11787;52.018;8.570;2024-02-14T02:12:37;7.40;99.90
23237;DHT22;11787;52.018;8.570;2024-02-14T02:15:07;7.40;99.90
23237;DHT22;11787;52.018;8.570;2024-02-14T02:17:38;7.40;99.90
23237;DHT22;11787;52.018;8.570;2024-02-14T02:20:05;7.40;99.90
23237;DHT22;11787;52.018;8.570;2024-02-14T02:22:32;7.40;99.90
23237;DHT22;11787;52.018;8.570;2024-02-14T02:25:01;7.40;99.90
23237;DHT22;11787;52.018;8.570;2024-02-14T02:27:27;7.40;99.90
23237;DHT22;11787;52.018;8.570;2024-02-14T02:29:52;7.40;99.90
23237;DHT22;11787;52.018;8.570;2024-02-14T02:32:18;7.40;99.90
23237;DHT22;11787;52.018;8.570;2024-02-14T02:34:43;7.50;99.90
23237;DHT22;11787;52.018;8.570;2024-02-14T02:37:11;7.40;99.90
23237;DHT22;11787;52.018;8.570;2024-02-14T02:39:37;7.50;99.90
23237;DHT22;11787;52.018;8.570;2024-02-14T02:42:03;7.50;99.90
23237;DHT22;11787;52.018;8.570;2024-02-14T02:44:29;7.50;99.90
23237;DHT22;11787;52.018;8.570;2024-02-14T02:46:54;7.50;99.90
23237;DHT22;11787;52.018;8.570;2024-02-14T02:49:21;7.50;99.90
23237;DHT22;11787;52.018;8.570;2024-02-14T02:51:46;7.50;99.90
23237;DHT22;11787;52.018;8.570;2024-02-14T02:54:13;7.50;99.90
23237;DHT22;11787;52.018;8.570;2024-02-14T02:56:38;7.50;99.90
23237;DHT22;11787;52.018;8.570;2024-02-14T02:59:06;7.50;99.90
23237;DHT22;11787;52.018;8.570;2024-02-14T03:01:36;7.50;99.90
23237;DHT22;11787;52.018;8.570;2024-02-14T03:04:02;7.60;99.90
23237;DHT22;11787;52.018;8.570;2024-02-14T03:06:28;7.60;99.90
23237;DHT22;11787;52.018;8.570;2024-02-14T03:08:54;7.60;99.90
23237;DHT22;11787;52.018;8.570;2024-02-14T03:11:22;7.60;99.90
23237;DHT22;11787;52.018;8.570;2024-02-14T03:13:47;7.60;99.90
23237;DHT22;11787;52.018;8.570;2024-02-14T03:16:14;7.60;99.90
23237;DHT22;11787;52.018;8.570;2024-02-14T03:18:40;7.70;99.90
23237;DHT22;11787;52.018;8.570;2024-02-14T03:21:06;7.60;99.90
23237;DHT22;11787;52.018;8.570;2024-02-14T03:23:32;7.70;99.90
23237;DHT22;11787;52.018;8.570;2024-02-14T03:25:57;7.70;99.90
23237;DHT22;11787;52.018;8.570;2024-02-14T03:28:23;7.70;99.90
23237;DHT22;11787;52.018;8.570;2024-02-14T03:30:48;7.70;99.90
23237;DHT22;11787;52.018;8.570;2024-02-14T03:33:14;7.70;99.90
23237;DHT22;11787;52.018;8.570;2024-02-14T03:35:40;7.70;99.90
23237;DHT22;11787;52.018;8.570;2024-02-14T03:38:06;7.70;99.90
23237;DHT22;11787;52.018;8.570;2024-02-14T03:40:34;7.80;99.90
23237;DHT22;11787;52.018;8.570;2024-02-14T03:43:01;7.80;99.90
23237;DHT22;11787;52.018;8.570;2024-02-14T03:45:27;7.80;99.90
23237;DHT22;11787;52.018;8.570;2024-02-14T03:47:55;7.80;99.90
23237;DHT22;11787;52.018;8.570;2024-02-14T03:50:21;7.80;99.90
23237;DHT22;11787;52.018;8.570;2024-02-14T03:52:47;7.90;99.90
23237;DHT22;11787;52.018;8.570;2024-02-14T03:55:13;7.90;99.90
23237;DHT22;11787;52.018;8.570;2024-02-14T03:57:39;7.90;99.90
23237;DHT22;11787;52.018;8.570;2024-02-14T04:00:06;7.90;99.90
23237;DHT22;11787;52.018;8.570;2024-02-14T04:02:35;7.90;99.90
23237;DHT22;11787;52.018;8.570;2024-02-14T04:05:01;7.90;99.90
23237;DHT22;11787;52.018;8.570;2024-02-14T04:07:27;7.90;99.90
23237;DHT22;11787;52.018;8.570;2024-02-14T04:09:54;7.90;99.90
23237;DHT22;11787;52.018;8.570;2024-02-14T04:12:20;7.90;99.90
23237;DHT22;11787;52.018;8.570;2024-02-14T04:14:45;7.90;99.90
23237;DHT22;11787;52.018;8.570;2024-02-14T04:17:11;7.90;99.90
23237;DHT22;11787;52.018;8.570;2024-02-14T04:19:38;8.00;99.90
23237;DHT22;11787;52.018;8.570;2024-02-14T04:22:03;8.00;99.90
23237;DHT22;11787;52.018;8.570;2024-02-14T04:24:29;8.00;99.90
23237;DHT22;11787;52.018;8.570;2024-02-14T04:26:55;8.00;99.90
23237;DHT22;11787;52.018;8.570;2024-02-14T04:29:22;8.00;99.90
23237;DHT22;11787;52.018;8.570;2024-02-14T04:31:48;8.00;99.90
23237;DHT22;11787;52.018;8.570;2024-02-14T04:34:14;8.00;99.90
23237;DHT22;11787;52.018;8.570;2024-02-14T04:36:40;8.00;99.90
23237;DHT22;11787;52.018;8.570;2024-02-14T04:39:06;8.10;99.90
23237;DHT22;11787;52.018;8.570;2024-02-14T04:41:32;8.00;99.90
23237;DHT22;11787;52.018;8.570;2024-02-14T04:44:03;8.10;99.90
23237;DHT22;11787;52.018;8.570;2024-02-14T04:46:29;8.10;99.90
23237;DHT22;11787;52.018;8.570;2024-02-14T04:48:55;8.10;99.90
23237;DHT22;11787;52.018;8.570;2024-02-14T04:51:20;8.10;99.90
23237;DHT22;11787;52.018;8.570;2024-02-14T04:53:46;8.10;99.90
23237;DHT22;11787;52.018;8.570;2024-02-14T04:56:11;8.10;99.90
23237;DHT22;11787;52.018;8.570;2024-02-14T04:58:37;8.10;99.90
23237;DHT22;11787;52.018;8.570;2024-02-14T05:01:03;8.20;99.90
23237;DHT22;11787;52.018;8.570;2024-02-14T05:03:28;8.20;99.90
23237;DHT22;11787;52.018;8.570;2024-02-14T05:05:54;8.20;99.90
23237;DHT22;11787;52.018;8.570;2024-02-14T05:08:19;8.20;99.90
23237;DHT22;11787;52.018;8.570;2024-02-14T05:10:46;8.20;99.90
23237;DHT22;11787;52.018;8.570;2024-02-14T05:13:11;8.20;99.90
23237;DHT22;11787;52.018;8.570;2024-02-14T05:15:38;8.20;99.90
23237;DHT22;11787;52.018;8.570;2024-02-14T05:18:04;8.10;99.90
23237;DHT22;11787;52.018;8.570;2024-02-14T05:20:30;8.10;99.90
23237;DHT22;11787;52.018;8.570;2024-02-14T05:22:56;8.10;99.90
23237;DHT22;11787;52.018;8.570;2024-02-14T05:43:34;7.90;99.90
23237;DHT22;11787;52.018;8.570;2024-02-14T05:46:00;7.90;99.90
23237;DHT22;11787;52.018;8.570;2024-02-14T05:48:25;7.90;99.90
23237;DHT22;11787;52.018;8.570;2024-02-14T05:50:51;7.90;99.90
23237;DHT22;11787;52.018;8.570;2024-02-14T05:53:17;7.90;99.90
23237;DHT22;11787;52.018;8.570;2024-02-14T05:55:42;8.00;99.90
23237;DHT22;11787;52.018;8.570;2024-02-14T05:58:08;8.00;99.90
23237;DHT22;11787;52.018;8.570;2024-02-14T06:00:33;8.00;99.90
23237;DHT22;11787;52.018;8.570;2024-02-14T06:02:59;8.00;99.90
23237;DHT22;11787;52.018;8.570;2024-02-14T06:05:24;8.00;99.90
23237;DHT22;11787;52.018;8.570;2024-02-14T06:07:50;8.10;99.90
23237;DHT22;11787;52.018;8.570;2024-02-14T06:10:16;8.00;99.90
23237;DHT22;11787;52.018;8.570;2024-02-14T06:12:41;8.00;99.90
23237;DHT22;11787;52.018;8.570;2024-02-14T06:15:08;8.10;99.90
23237;DHT22;11787;52.018;8.570;2024-02-14T06:17:34;8.10;99.90
23237;DHT22;11787;52.018;8.570;2024-02-14T06:20:00;8.10;99.90
23237;DHT22;11787;52.018;8.570;2024-02-14T06:22:31;8.10;99.90
23237;DHT22;11787;52.018;8.570;2024-02-14T06:24:57;8.10;99.90
23237;DHT22;11787;52.018;8.570;2024-02-14T06:27:23;8.10;99.90
23237;DHT22;11787;52.018;8.570;2024-02-14T06:29:48;8.10;99.90
23237;DHT22;11787;52.018;8.570;2024-02-14T06:32:14;8.20;99.90
23237;DHT22;11787;52.018;8.570;2024-02-14T06:34:40;8.20;99.90
23237;DHT22;11787;52.018;8.570;2024-02-14T06:37:05;8.20;99.90
23237;DHT22;11787;52.018;8.570;2024-02-14T06:39:31;8.20;99.90
23237;DHT22;11787;52.018;8.570;2024-02-14T06:41:57;8.20;99.90
23237;DHT22;11787;52.018;8.570;2024-02-14T06:44:25;8.30;99.90
23237;DHT22;11787;52.018;8.570;2024-02-14T06:46:51;8.30;99.90
23237;DHT22;11787;52.018;8.570;2024-02-14T06:49:17;8.30;99.90
23237;DHT22;11787;52.018;8.570;2024-02-14T06:51:42;8.30;99.90
23237;DHT22;11787;52.018;8.570;2024-02-14T06:54:08;8.30;99.90
23237;DHT22;11787;52.018;8.570;2024-02-14T06:56:35;8.30;99.90
23237;DHT22;11787;52.018;8.570;2024-02-14T06:59:00;8.30;99.90
23237;DHT22;11787;52.018;8.570;2024-02-14T07:01:28;8.40;99.90
23237;DHT22;11787;52.018;8.570;2024-02-14T07:03:53;8.30;99.90
23237;DHT22;11787;52.018;8.570;2024-02-14T07:06:19;8.40;99.90
23237;DHT22;11787;52.018;8.570;2024-02-14T07:08:45;8.40;99.90
23237;DHT22;11787;52.018;8.570;2024-02-14T07:11:10;8.40;99.90
23237;DHT22;11787;52.018;8.570;2024-02-14T07:13:36;8.40;99.90
23237;DHT22;11787;52.018;8.570;2024-02-14T07:16:02;8.50;99.90
23237;DHT22;11787;52.018;8.570;2024-02-14T07:18:28;8.50;99.90
23237;DHT22;11787;52.018;8.570;2024-02-14T07:20:53;8.50;99.90
23237;DHT22;11787;52.018;8.570;2024-02-14T07:23:19;8.50;99.90
23237;DHT22;11787;52.018;8.570;2024-02-14T07:25:45;8.50;99.90
23237;DHT22;11787;52.018;8.570;2024-02-14T07:28:11;8.50;99.90
23237;DHT22;11787;52.018;8.570;2024-02-14T07:30:37;8.50;99.90
23237;DHT22;11787;52.018;8.570;2024-02-14T07:33:02;8.60;99.90
23237;DHT22;11787;52.018;8.570;2024-02-14T07:35:28;8.60;99.90
23237;DHT22;11787;52.018;8.570;2024-02-14T07:37:54;8.60;99.90
23237;DHT22;11787;52.018;8.570;2024-02-14T07:40:21;8.60;99.90
23237;DHT22;11787;52.018;8.570;2024-02-14T07:42:47;8.60;99.90
23237;DHT22;11787;52.018;8.570;2024-02-14T07:45:12;8.60;99.90
23237;DHT22;11787;52.018;8.570;2024-02-14T07:47:38;8.70;99.90
23237;DHT22;11787;52.018;8.570;2024-02-14T07:50:06;8.70;99.90
23237;DHT22;11787;52.018;8.570;2024-02-14T07:52:31;8.70;99.90
23237;DHT22;11787;52.018;8.570;2024-02-14T07:54:57;8.70;99.90
23237;DHT22;11787;52.018;8.570;2024-02-14T07:57:23;8.70;99.90
23237;DHT22;11787;52.018;8.570;2024-02-14T07:59:53;8.70;99.90
23237;DHT22;11787;52.018;8.570;2024-02-14T08:02:19;8.80;99.90
23237;DHT22;11787;52.018;8.570;2024-02-14T08:04:45;8.80;99.90
23237;DHT22;11787;52.018;8.570;2024-02-14T08:07:11;8.80;99.90
23237;DHT22;11787;52.018;8.570;2024-02-14T08:09:36;8.80;99.90
23237;DHT22;11787;52.018;8.570;2024-02-14T08:12:04;8.80;99.90
23237;DHT22;11787;52.018;8.570;2024-02-14T08:14:30;8.80;99.90
23237;DHT22;11787;52.018;8.570;2024-02-14T08:16:55;8.90;99.90
23237;DHT22;11787;52.018;8.570;2024-02-14T08:19:21;8.90;99.90
23237;DHT22;11787;52.018;8.570;2024-02-14T08:21:47;8.90;99.90
23237;DHT22;11787;52.018;8.570;2024-02-14T08:24:12;8.90;99.90
23237;DHT22;11787;52.018;8.570;2024-02-14T08:26:38;8.90;99.90
23237;DHT22;11787;52.018;8.570;2024-02-14T08:29:03;8.90;99.90
23237;DHT22;11787;52.018;8.570;2024-02-14T08:31:29;9.00;99.90
23237;DHT22;11787;52.018;8.570;2024-02-14T08:33:56;9.00;99.90
23237;DHT22;11787;52.018;8.570;2024-02-14T08:36:21;9.00;99.90
23237;DHT22;11787;52.018;8.570;2024-02-14T08:38:47;9.10;99.90
23237;DHT22;11787;52.018;8.570;2024-02-14T08:41:13;9.10;99.90
23237;DHT22;11787;52.018;8.570;2024-02-14T08:43:39;9.10;99.90
23237;DHT22;11787;52.018;8.570;2024-02-14T08:46:10;9.10;99.90
23237;DHT22;11787;52.018;8.570;2024-02-14T08:48:36;9.10;99.90
23237;DHT22;11787;52.018;8.570;2024-02-14T08:51:07;9.20;99.90
23237;DHT22;11787;52.018;8.570;2024-02-14T08:53:33;9.20;99.90
23237;DHT22;11787;52.018;8.570;2024-02-14T08:55:58;9.20;99.90
23237;DHT22;11787;52.018;8.570;2024-02-14T08:58:24;9.20;99.90
23237;DHT22;11787;52.018;8.570;2024-02-14T09:00:49;9.20;99.90
23237;DHT22;11787;52.018;8.570;2024-02-14T09:03:16;9.30;99.90
23237;DHT22;11787;52.018;8.570;2024-02-14T09:05:43;9.30;99.90
23237;DHT22;11787;52.018;8.570;2024-02-14T09:08:09;9.30;99.90
23237;DHT22;11787;52.018;8.570;2024-02-14T09:10:34;9.30;99.90
23237;DHT22;11787;52.018;8.570;2024-02-14T09:13:00;9.30;99.90
23237;DHT22;11787;52.018;8.570;2024-02-14T09:15:26;9.30;99.90
23237;DHT22;11787;52.018;8.570;2024-02-14T09:17:51;9.30;99.90
23237;DHT22;11787;52.018;8.570;2024-02-14T09:20:17;9.30;99.90
23237;DHT22;11787;52.018;8.570;2024-02-14T09:22:44;9.30;99.90
23237;DHT22;11787;52.018;8.570;2024-02-14T09:25:09;9.40;99.90
23237;DHT22;11787;52.018;8.570;2024-02-14T09:27:35;9.40;99.90
23237;DHT22;11787;52.018;8.570;2024-02-14T09:30:04;9.40;99.90
23237;DHT22;11787;52.018;8.570;2024-02-14T09:32:31;9.50;99.90
23237;DHT22;11787;52.018;8.570;2024-02-14T09:34:58;9.50;99.90
23237;DHT22;11787;52.018;8.570;2024-02-14T09:37:23;9.50;99.90
23237;DHT22;11787;52.018;8.570;2024-02-14T09:39:49;9.50;99.90
23237;DHT22;11787;52.018;8.570;2024-02-14T09:42:16;9.50;99.90
23237;DHT22;11787;52.018;8.570;2024-02-14T09:44:45;9.60;99.90
23237;DHT22;11787;52.018;8.570;2024-02-14T09:47:11;9.60;99.90
23237;DHT22;11787;52.018;8.570;2024-02-14T09:49:38;9.60;99.90
23237;DHT22;11787;52.018;8.570;2024-02-14T09:52:05;9.60;99.90
23237;DHT22;11787;52.018;8.570;2024-02-14T09:54:32;9.60;99.90
23237;DHT22;11787;52.018;8.570;2024-02-14T09:57:02;9.60;99.90
23237;DHT22;11787;52.018;8.570;2024-02-14T09:59:28;9.60;99.90
23237;DHT22;11787;52.018;8.570;2024-02-14T10:01:54;9.60;99.90
23237;DHT22;11787;52.018;8.570;2024-02-14T10:10:25;9.70;99.90
23237;DHT22;11787;52.018;8.570;2024-02-14T10:12:51;9.70;99.90
23237;DHT22;11787;52.018;8.570;2024-02-14T10:15:17;9.70;99.90
23237;DHT22;11787;52.018;8.570;2024-02-14T10:17:42;9.70;99.90
23237;DHT22;11787;52.018;8.570;2024-02-14T10:20:08;9.70;99.90
23237;DHT22;11787;52.018;8.570;2024-02-14T10:22:35;9.70;99.90
23237;DHT22;11787;52.018;8.570;2024-02-14T10:25:02;9.80;99.90
23237;DHT22;11787;52.018;8.570;2024-02-14T10:27:27;9.80;99.90
23237;DHT22;11787;52.018;8.570;2024-02-14T10:29:55;9.90;99.90
23237;DHT22;11787;52.018;8.570;2024-02-14T10:32:22;9.90;99.90
23237;DHT22;11787;52.018;8.570;2024-02-14T10:34:47;9.90;99.90
23237;DHT22;11787;52.018;8.570;2024-02-14T10:37:14;10.00;99.90
23237;DHT22;11787;52.018;8.570;2024-02-14T10:39:39;10.00;99.90
23237;DHT22;11787;52.018;8.570;2024-02-14T10:42:06;10.00;99.90
23237;DHT22;11787;52.018;8.570;2024-02-14T10:44:32;10.00;99.90
23237;DHT22;11787;52.018;8.570;2024-02-14T10:46:58;10.10;99.90
23237;DHT22;11787;52.018;8.570;2024-02-14T10:49:25;10.10;99.90
23237;DHT22;11787;52.018;8.570;2024-02-14T10:51:53;10.10;99.90
23237;DHT22;11787;52.018;8.570;2024-02-14T10:54:20;10.20;99.90
23237;DHT22;11787;52.018;8.570;2024-02-14T10:56:49;10.20;99.90
23237;DHT22;11787;52.018;8.570;2024-02-14T10:59:17;10.30;99.90
23237;DHT22;11787;52.018;8.570;2024-02-14T11:01:45;10.40;99.90
23237;DHT22;11787;52.018;8.570;2024-02-14T11:04:10;10.50;99.90
23237;DHT22;11787;52.018;8.570;2024-02-14T11:06:46;10.50;99.90
23237;DHT22;11787;52.018;8.570;2024-02-14T11:09:11;10.50;99.90
23237;DHT22;11787;52.018;8.570;2024-02-14T11:11:38;10.50;99.90
23237;DHT22;11787;52.018;8.570;2024-02-14T11:14:03;10.50;99.90
23237;DHT22;11787;52.018;8.570;2024-02-14T11:16:30;10.50;99.90
23237;DHT22;11787;52.018;8.570;2024-02-14T11:21:39;10.50;99.90
23237;DHT22;11787;52.018;8.570;2024-02-14T11:24:07;10.50;99.90
23237;DHT22;11787;52.018;8.570;2024-02-14T11:27:09;10.50;99.90
23237;DHT22;11787;52.018;8.570;2024-02-14T11:29:28;10.50;99.90
23237;DHT22;11787;52.018;8.570;2024-02-14T11:32:00;10.50;99.90
23237;DHT22;11787;52.018;8.570;2024-02-14T11:34:26;10.50;99.90
23237;DHT22;11787;52.018;8.570;2024-02-14T11:36:52;10.50;99.90
23237;DHT22;11787;52.018;8.570;2024-02-14T11:39:17;10.50;99.90
23237;DHT22;11787;52.018;8.570;2024-02-14T11:41:43;10.50;99.90
23237;DHT22;11787;52.018;8.570;2024-02-14T11:44:08;10.50;99.90
23237;DHT22;11787;52.018;8.570;2024-02-14T11:46:36;10.60;99.90
23237;DHT22;11787;52.018;8.570;2024-02-14T11:49:02;10.60;99.90
23237;DHT22;11787;52.018;8.570;2024-02-14T11:51:28;10.60;99.90
23237;DHT22;11787;52.018;8.570;2024-02-14T11:53:59;10.60;99.90
23237;DHT22;11787;52.018;8.570;2024-02-14T11:56:30;10.50;99.90
23237;DHT22;11787;52.018;8.570;2024-02-14T11:59:02;10.60;99.90
23237;DHT22;11787;52.018;8.570;2024-02-14T12:01:31;10.60;99.90
23237;DHT22;11787;52.018;8.570;2024-02-14T12:03:58;10.50;99.90
23237;DHT22;11787;52.018;8.570;2024-02-14T12:06:23;10.60;99.90
23237;DHT22;11787;52.018;8.570;2024-02-14T12:08:49;10.60;99.90
23237;DHT22;11787;52.018;8.570;2024-02-14T12:11:15;10.60;99.90
23237;DHT22;11787;52.018;8.570;2024-02-14T12:13:40;10.50;99.90
23237;DHT22;11787;52.018;8.570;2024-02-14T12:16:08;10.60;99.90
23237;DHT22;11787;52.018;8.570;2024-02-14T12:18:35;10.60;99.90
23237;DHT22;11787;52.018;8.570;2024-02-14T12:21:07;10.60;99.90
23237;DHT22;11787;52.018;8.570;2024-02-14T12:23:35;10.60;99.90
23237;DHT22;11787;52.018;8.570;2024-02-14T12:26:01;10.60;99.90
23237;DHT22;11787;52.018;8.570;2024-02-14T12:28:28;10.60;99.90
23237;DHT22;11787;52.018;8.570;2024-02-14T12:30:54;10.60;99.90
23237;DHT22;11787;52.018;8.570;2024-02-14T12:33:22;10.50;99.90
23237;DHT22;11787;52.018;8.570;2024-02-14T12:35:49;10.60;99.90
23237;DHT22;11787;52.018;8.570;2024-02-14T12:38:15;10.60;99.90
23237;DHT22;11787;52.018;8.570;2024-02-14T12:40:41;10.60;99.90
23237;DHT22;11787;52.018;8.570;2024-02-14T12:43:07;10.60;99.90
23237;DHT22;11787;52.018;8.570;2024-02-14T12:45:33;10.60;99.90
23237;DHT22;11787;52.018;8.570;2024-02-14T12:47:59;10.60;99.90
23237;DHT22;11787;52.018;8.570;2024-02-14T12:50:25;10.60;99.90
23237;DHT22;11787;52.018;8.570;2024-02-14T12:52:51;10.60;99.90
23237;DHT22;11787;52.018;8.570;2024-02-14T12:55:16;10.60;99.90
23237;DHT22;11787;52.018;8.570;2024-02-14T12:57:43;10.60;99.90
23237;DHT22;11787;52.018;8.570;2024-02-14T13:00:08;10.60;99.90
23237;DHT22;11787;52.018;8.570;2024-02-14T13:02:34;10.60;99.90
23237;DHT22;11787;52.018;8.570;2024-02-14T13:05:00;10.60;99.90
23237;DHT22;11787;52.018;8.570;2024-02-14T13:07:27;10.60;99.90
23237;DHT22;11787;52.018;8.570;2024-02-14T13:09:52;10.60;99.90
23237;DHT22;11787;52.018;8.570;2024-02-14T13:12:18;10.60;99.90
23237;DHT22;11787;52.018;8.570;2024-02-14T13:14:43;10.60;99.90
23237;DHT22;11787;52.018;8.570;2024-02-14T13:17:09;10.60;99.90
23237;DHT22;11787;52.018;8.570;2024-02-14T13:19:36;10.60;99.90
23237;DHT22;11787;52.018;8.570;2024-02-14T13:22:01;10.60;99.90
23237;DHT22;11787;52.018;8.570;2024-02-14T13:24:27;10.70;99.90
23237;DHT22;11787;52.018;8.570;2024-02-14T13:26:53;10.70;99.90
23237;DHT22;11787;52.018;8.570;2024-02-14T13:29:19;10.70;99.90
23237;DHT22;11787;52.018;8.570;2024-02-14T13:31:44;10.70;99.90
23237;DHT22;11787;52.018;8.570;2024-02-14T13:34:10;10.70;99.90
23237;DHT22;11787;52.018;8.570;2024-02-14T13:36:37;10.70;99.90
23237;DHT22;11787;52.018;8.570;2024-02-14T13:39:02;10.70;99.90
23237;DHT22;11787;52.018;8.570;2024-02-14T13:41:28;10.80;99.90
23237;DHT22;11787;52.018;8.570;2024-02-14T13:43:53;10.80;99.90
23237;DHT22;11787;52.018;8.570;2024-02-14T13:46:19;10.80;99.90
23237;DHT22;11787;52.018;8.570;2024-02-14T13:48:44;10.80;99.90
23237;DHT22;11787;52.018;8.570;2024-02-14T13:51:10;10.90;99.90
23237;DHT22;11787;52.018;8.570;2024-02-14T13:53:35;10.90;99.90
23237;DHT22;11787;52.018;8.570;2024-02-14T13:56:01;10.90;99.90
23237;DHT22;11787;52.018;8.570;2024-02-14T13:58:26;10.90;99.90
23237;DHT22;11787;52.018;8.570;2024-02-14T14:00:53;10.90;99.90
23237;DHT22;11787;52.018;8.570;2024-02-14T14:03:18;11.00;99.90
23237;DHT22;11787;52.018;8.570;2024-02-14T14:05:44;11.10;99.90
23237;DHT22;11787;52.018;8.570;2024-02-14T14:08:09;11.10;99.90
23237;DHT22;11787;52.018;8.570;2024-02-14T14:10:35;11.10;99.90
23237;DHT22;11787;52.018;8.570;2024-02-14T14:13:00;11.10;99.90
23237;DHT22;11787;52.018;8.570;2024-02-14T14:15:26;11.10;99.90
23237;DHT22;11787;52.018;8.570;2024-02-14T14:17:57;11.10;99.90
23237;DHT22;11787;52.018;8.570;2024-02-14T14:20:23;11.10;99.90
23237;DHT22;11787;52.018;8.570;2024-02-14T14:22:48;11.20;99.90
23237;DHT22;11787;52.018;8.570;2024-02-14T14:25:13;11.20;99.90
23237;DHT22;11787;52.018;8.570;2024-02-14T14:27:39;11.20;99.90
23237;DHT22;11787;52.018;8.570;2024-02-14T14:30:05;11.20;99.90
23237;DHT22;11787;52.018;8.570;2024-02-14T14:32:30;11.10;99.90
23237;DHT22;11787;52.018;8.570;2024-02-14T14:34:56;11.10;99.90
23237;DHT22;11787;52.018;8.570;2024-02-14T14:37:21;11.20;99.90
23237;DHT22;11787;52.018;8.570;2024-02-14T14:39:48;11.20;99.90
23237;DHT22;11787;52.018;8.570;2024-02-14T14:42:13;11.20;99.90
23237;DHT22;11787;52.018;8.570;2024-02-14T14:44:39;11.20;99.90
23237;DHT22;11787;52.018;8.570;2024-02-14T14:47:05;11.20;99.90
23237;DHT22;11787;52.018;8.570;2024-02-14T14:49:30;11.20;99.90
23237;DHT22;11787;52.018;8.570;2024-02-14T14:51:56;11.30;99.90
23237;DHT22;11787;52.018;8.570;2024-02-14T14:54:22;11.20;99.90
23237;DHT22;11787;52.018;8.570;2024-02-14T14:56:52;11.20;99.90
23237;DHT22;11787;52.018;8.570;2024-02-14T14:59:18;11.20;99.90
23237;DHT22;11787;52.018;8.570;2024-02-14T15:01:44;11.20;99.90
23237;DHT22;11787;52.018;8.570;2024-02-14T15:04:10;11.20;99.90
23237;DHT22;11787;52.018;8.570;2024-02-14T15:06:35;11.20;99.90
23237;DHT22;11787;52.018;8.570;2024-02-14T15:09:00;11.20;99.90
23237;DHT22;11787;52.018;8.570;2024-02-14T15:11:26;11.20;99.90
23237;DHT22;11787;52.018;8.570;2024-02-14T15:13:52;11.20;99.90
23237;DHT22;11787;52.018;8.570;2024-02-14T15:16:18;11.20;99.90
23237;DHT22;11787;52.018;8.570;2024-02-14T15:18:43;11.30;99.90
23237;DHT22;11787;52.018;8.570;2024-02-14T15:21:10;11.30;99.90
23237;DHT22;11787;52.018;8.570;2024-02-14T15:23:36;11.30;99.90
23237;DHT22;11787;52.018;8.570;2024-02-14T15:26:01;11.30;99.90
23237;DHT22;11787;52.018;8.570;2024-02-14T15:28:32;11.30;99.90
23237;DHT22;11787;52.018;8.570;2024-02-14T15:30:58;11.30;99.90
23237;DHT22;11787;52.018;8.570;2024-02-14T15:33:43;11.20;99.90
23237;DHT22;11787;52.018;8.570;2024-02-14T15:36:09;11.20;99.90
23237;DHT22;11787;52.018;8.570;2024-02-14T15:38:34;11.20;99.90
23237;DHT22;11787;52.018;8.570;2024-02-14T15:41:00;11.20;99.90
23237;DHT22;11787;52.018;8.570;2024-02-14T15:43:26;11.20;99.90
23237;DHT22;11787;52.018;8.570;2024-02-14T15:45:52;11.10;99.90
23237;DHT22;11787;52.018;8.570;2024-02-14T15:48:18;11.10;99.90
23237;DHT22;11787;52.018;8.570;2024-02-14T15:50:44;11.10;99.90
23237;DHT22;11787;52.018;8.570;2024-02-14T15:53:11;11.00;99.90
23237;DHT22;11787;52.018;8.570;2024-02-14T15:55:37;11.10;99.90
23237;DHT22;11787;52.018;8.570;2024-02-14T15:58:02;11.10;99.90
23237;DHT22;11787;52.018;8.570;2024-02-14T16:00:28;11.10;99.90